sensor_id;sensor_type;location;lat;lon;timestamp;P1;durP1;ratioP1;P2;durP2;ratioP2
4504;SDS011;2265;48.794;9.520;2023-12-28T00:01:33;5.90;;;3.60;;
4504;SDS011;2265;48.794;9.520;2023-12-28T00:04:05;11.60;;;4.57;;
4504;SDS011;2265;48.794;9.520;2023-12-28T00:06:32;9.93;;;4.47;;
4504;SDS011;2265;48.794;9.520;2023-12-28T00:09:01;8.80;;;3.90;;
4504;SDS011;2265;48.794;9.520;2023-12-28T00:11:29;9.93;;;4.30;;
4504;SDS011;2265;48.794;9.520;2023-12-28T00:13:59;6.83;;;3.80;;
4504;SDS011;2265;48.794;9.520;2023-12-28T00:16:26;10.23;;;4.47;;
4504;SDS011;2265;48.794;9.520;2023-12-28T00:18:53;10.87;;;4.20;;
4504;SDS011;2265;48.794;9.520;2023-12-28T00:21:21;9.07;;;3.90;;
4504;SDS011;2265;48.794;9.520;2023-12-28T00:23:48;9.70;;;3.93;;
4504;SDS011;2265;48.794;9.520;2023-12-28T00:26:15;7.40;;;3.67;;
4504;SDS011;2265;48.794;9.520;2023-12-28T00:28:46;7.77;;;3.43;;
4504;SDS011;2265;48.794;9.520;2023-12-28T00:31:18;10.10;;;4.03;;
4504;SDS011;2265;48.794;9.520;2023-12-28T00:33:48;8.67;;;4.10;;
4504;SDS011;2265;48.794;9.520;2023-12-28T00:36:18;11.77;;;5.60;;
4504;SDS011;2265;48.794;9.520;2023-12-28T00:38:45;12.53;;;5.20;;
4504;SDS011;2265;48.794;9.520;2023-12-28T00:41:12;10.97;;;4.97;;
4504;SDS011;2265;48.794;9.520;2023-12-28T00:43:40;8.80;;;4.80;;
4504;SDS011;2265;48.794;9.520;2023-12-28T00:46:07;10.17;;;4.50;;
4504;SDS011;2265;48.794;9.520;2023-12-28T00:48:35;7.07;;;4.10;;
4504;SDS011;2265;48.794;9.520;2023-12-28T00:51:03;6.70;;;3.47;;
4504;SDS011;2265;48.794;9.520;2023-12-28T00:53:30;6.30;;;3.37;;
4504;SDS011;2265;48.794;9.520;2023-12-28T00:55:57;7.17;;;3.50;;
4504;SDS011;2265;48.794;9.520;2023-12-28T00:58:24;8.27;;;3.53;;
4504;SDS011;2265;48.794;9.520;2023-12-28T01:00:51;6.93;;;2.90;;
4504;SDS011;2265;48.794;9.520;2023-12-28T01:03:20;8.40;;;4.30;;
4504;SDS011;2265;48.794;9.520;2023-12-28T01:05:49;8.50;;;4.20;;
4504;SDS011;2265;48.794;9.520;2023-12-28T01:08:18;11.93;;;4.57;;
4504;SDS011;2265;48.794;9.520;2023-12-28T01:10:45;11.60;;;4.97;;
4504;SDS011;2265;48.794;9.520;2023-12-28T01:13:13;9.17;;;4.27;;
4504;SDS011;2265;48.794;9.520;2023-12-28T01:15:40;7.30;;;3.77;;
4504;SDS011;2265;48.794;9.520;2023-12-28T01:18:08;5.10;;;2.87;;
4504;SDS011;2265;48.794;9.520;2023-12-28T01:20:39;5.20;;;3.03;;
4504;SDS011;2265;48.794;9.520;2023-12-28T01:23:07;5.20;;;2.70;;
4504;SDS011;2265;48.794;9.520;2023-12-28T01:25:34;5.50;;;3.30;;
4504;SDS011;2265;48.794;9.520;2023-12-28T01:28:04;6.43;;;3.60;;
4504;SDS011;2265;48.794;9.520;2023-12-28T01:30:31;10.93;;;5.80;;
4504;SDS011;2265;48.794;9.520;2023-12-28T01:32:59;20.30;;;7.70;;
4504;SDS011;2265;48.794;9.520;2023-12-28T01:35:26;9.90;;;4.93;;
4504;SDS011;2265;48.794;9.520;2023-12-28T01:37:53;7.37;;;3.77;;
4504;SDS011;2265;48.794;9.520;2023-12-28T01:40:29;6.07;;;3.07;;
4504;SDS011;2265;48.794;9.520;2023-12-28T01:42:56;4.87;;;2.83;;
4504;SDS011;2265;48.794;9.520;2023-12-28T01:45:23;5.67;;;3.07;;
4504;SDS011;2265;48.794;9.520;2023-12-28T01:47:58;4.00;;;2.47;;
4504;SDS011;2265;48.794;9.520;2023-12-28T01:50:26;5.77;;;2.53;;
4504;SDS011;2265;48.794;9.520;2023-12-28T01:52:54;5.60;;;2.90;;
4504;SDS011;2265;48.794;9.520;2023-12-28T01:55:24;7.47;;;3.70;;
4504;SDS011;2265;48.794;9.520;2023-12-28T01:57:53;7.17;;;3.50;;
4504;SDS011;2265;48.794;9.520;2023-12-28T02:00:21;7.43;;;3.47;;
4504;SDS011;2265;48.794;9.520;2023-12-28T02:02:48;7.10;;;3.30;;
4504;SDS011;2265;48.794;9.520;2023-12-28T02:05:16;6.57;;;3.37;;
4504;SDS011;2265;48.794;9.520;2023-12-28T02:07:47;6.60;;;3.30;;
4504;SDS011;2265;48.794;9.520;2023-12-28T02:10:20;11.63;;;4.47;;
4504;SDS011;2265;48.794;9.520;2023-12-28T02:12:47;10.43;;;5.00;;
4504;SDS011;2265;48.794;9.520;2023-12-28T02:15:16;7.83;;;3.93;;
4504;SDS011;2265;48.794;9.520;2023-12-28T02:17:50;6.47;;;4.10;;
4504;SDS011;2265;48.794;9.520;2023-12-28T02:20:26;7.60;;;3.77;;
4504;SDS011;2265;48.794;9.520;2023-12-28T02:22:56;7.87;;;3.77;;
4504;SDS011;2265;48.794;9.520;2023-12-28T02:25:25;8.70;;;3.90;;
4504;SDS011;2265;48.794;9.520;2023-12-28T02:27:52;6.80;;;3.47;;
4504;SDS011;2265;48.794;9.520;2023-12-28T02:30:23;7.20;;;3.53;;
4504;SDS011;2265;48.794;9.520;2023-12-28T02:32:52;9.90;;;3.50;;
4504;SDS011;2265;48.794;9.520;2023-12-28T02:35:39;7.03;;;3.20;;
4504;SDS011;2265;48.794;9.520;2023-12-28T02:38:09;6.50;;;3.40;;
4504;SDS011;2265;48.794;9.520;2023-12-28T02:40:39;6.73;;;3.63;;
4504;SDS011;2265;48.794;9.520;2023-12-28T02:43:09;7.60;;;3.60;;
4504;SDS011;2265;48.794;9.520;2023-12-28T02:45:37;7.60;;;3.50;;
4504;SDS011;2265;48.794;9.520;2023-12-28T02:48:09;8.43;;;3.90;;
4504;SDS011;2265;48.794;9.520;2023-12-28T02:50:37;6.00;;;3.20;;
4504;SDS011;2265;48.794;9.520;2023-12-28T02:53:04;7.87;;;3.37;;
4504;SDS011;2265;48.794;9.520;2023-12-28T02:55:39;7.17;;;3.23;;
4504;SDS011;2265;48.794;9.520;2023-12-28T02:58:06;7.40;;;3.47;;
4504;SDS011;2265;48.794;9.520;2023-12-28T03:00:33;7.20;;;3.50;;
4504;SDS011;2265;48.794;9.520;2023-12-28T03:03:06;5.37;;;3.13;;
4504;SDS011;2265;48.794;9.520;2023-12-28T03:05:33;6.03;;;3.20;;
4504;SDS011;2265;48.794;9.520;2023-12-28T03:08:00;5.20;;;2.83;;
4504;SDS011;2265;48.794;9.520;2023-12-28T03:10:28;6.40;;;3.10;;
4504;SDS011;2265;48.794;9.520;2023-12-28T03:12:56;5.37;;;3.50;;
4504;SDS011;2265;48.794;9.520;2023-12-28T03:15:23;4.77;;;2.80;;
4504;SDS011;2265;48.794;9.520;2023-12-28T03:18:07;9.10;;;4.03;;
4504;SDS011;2265;48.794;9.520;2023-12-28T03:20:34;9.40;;;3.53;;
4504;SDS011;2265;48.794;9.520;2023-12-28T03:23:02;8.37;;;3.70;;
4504;SDS011;2265;48.794;9.520;2023-12-28T03:25:31;7.27;;;3.60;;
4504;SDS011;2265;48.794;9.520;2023-12-28T03:28:00;9.00;;;4.10;;
4504;SDS011;2265;48.794;9.520;2023-12-28T03:30:33;7.27;;;3.80;;
4504;SDS011;2265;48.794;9.520;2023-12-28T03:33:01;8.30;;;3.70;;
4504;SDS011;2265;48.794;9.520;2023-12-28T03:35:28;5.97;;;2.93;;
4504;SDS011;2265;48.794;9.520;2023-12-28T03:37:58;6.07;;;3.20;;
4504;SDS011;2265;48.794;9.520;2023-12-28T03:40:26;5.60;;;2.80;;
4504;SDS011;2265;48.794;9.520;2023-12-28T03:42:53;7.43;;;3.93;;
4504;SDS011;2265;48.794;9.520;2023-12-28T03:45:21;7.33;;;3.10;;
4504;SDS011;2265;48.794;9.520;2023-12-28T03:47:49;6.57;;;3.50;;
4504;SDS011;2265;48.794;9.520;2023-12-28T03:50:16;6.80;;;3.70;;
4504;SDS011;2265;48.794;9.520;2023-12-28T03:52:43;4.63;;;2.90;;
4504;SDS011;2265;48.794;9.520;2023-12-28T03:55:10;6.20;;;3.50;;
4504;SDS011;2265;48.794;9.520;2023-12-28T03:57:47;5.80;;;3.17;;
4504;SDS011;2265;48.794;9.520;2023-12-28T04:00:14;4.83;;;2.80;;
4504;SDS011;2265;48.794;9.520;2023-12-28T04:05:26;6.43;;;3.40;;
4504;SDS011;2265;48.794;9.520;2023-12-28T04:07:53;5.57;;;3.17;;
4504;SDS011;2265;48.794;9.520;2023-12-28T04:10:28;5.33;;;3.00;;
4504;SDS011;2265;48.794;9.520;2023-12-28T04:12:56;6.20;;;3.23;;
4504;SDS011;2265;48.794;9.520;2023-12-28T04:15:24;7.13;;;2.90;;
4504;SDS011;2265;48.794;9.520;2023-12-28T04:17:54;5.57;;;3.00;;
4504;SDS011;2265;48.794;9.520;2023-12-28T04:20:25;4.20;;;2.70;;
4504;SDS011;2265;48.794;9.520;2023-12-28T04:22:52;8.90;;;2.80;;
4504;SDS011;2265;48.794;9.520;2023-12-28T04:25:19;4.77;;;2.43;;
4504;SDS011;2265;48.794;9.520;2023-12-28T04:27:46;3.80;;;2.30;;
4504;SDS011;2265;48.794;9.520;2023-12-28T04:30:14;7.30;;;3.10;;
4504;SDS011;2265;48.794;9.520;2023-12-28T04:32:44;7.60;;;3.60;;
4504;SDS011;2265;48.794;9.520;2023-12-28T04:35:12;9.93;;;3.40;;
4504;SDS011;2265;48.794;9.520;2023-12-28T04:37:44;7.77;;;3.90;;
4504;SDS011;2265;48.794;9.520;2023-12-28T04:40:13;8.30;;;3.70;;
4504;SDS011;2265;48.794;9.520;2023-12-28T04:42:42;7.40;;;3.23;;
4504;SDS011;2265;48.794;9.520;2023-12-28T04:45:09;6.03;;;2.67;;
4504;SDS011;2265;48.794;9.520;2023-12-28T04:47:36;5.60;;;2.63;;
4504;SDS011;2265;48.794;9.520;2023-12-28T04:50:04;7.67;;;3.13;;
4504;SDS011;2265;48.794;9.520;2023-12-28T04:52:33;4.80;;;2.47;;
4504;SDS011;2265;48.794;9.520;2023-12-28T04:55:01;4.53;;;2.53;;
4504;SDS011;2265;48.794;9.520;2023-12-28T04:57:34;3.67;;;2.30;;
4504;SDS011;2265;48.794;9.520;2023-12-28T05:00:01;4.60;;;2.50;;
4504;SDS011;2265;48.794;9.520;2023-12-28T05:02:28;2.97;;;2.10;;
4504;SDS011;2265;48.794;9.520;2023-12-28T05:04:55;4.53;;;2.30;;
4504;SDS011;2265;48.794;9.520;2023-12-28T05:07:22;3.70;;;2.50;;
4504;SDS011;2265;48.794;9.520;2023-12-28T05:09:51;4.87;;;2.27;;
4504;SDS011;2265;48.794;9.520;2023-12-28T05:12:18;3.47;;;2.20;;
4504;SDS011;2265;48.794;9.520;2023-12-28T05:14:45;2.93;;;2.13;;
4504;SDS011;2265;48.794;9.520;2023-12-28T05:17:12;13.83;;;2.50;;
4504;SDS011;2265;48.794;9.520;2023-12-28T05:19:40;4.67;;;2.50;;
4504;SDS011;2265;48.794;9.520;2023-12-28T05:22:07;4.80;;;2.70;;
4504;SDS011;2265;48.794;9.520;2023-12-28T05:24:36;3.90;;;2.47;;
4504;SDS011;2265;48.794;9.520;2023-12-28T05:27:05;4.13;;;2.40;;
4504;SDS011;2265;48.794;9.520;2023-12-28T05:29:32;4.10;;;2.30;;
4504;SDS011;2265;48.794;9.520;2023-12-28T05:31:59;2.90;;;2.33;;
4504;SDS011;2265;48.794;9.520;2023-12-28T05:34:26;3.70;;;2.47;;
4504;SDS011;2265;48.794;9.520;2023-12-28T05:36:53;3.30;;;2.30;;
4504;SDS011;2265;48.794;9.520;2023-12-28T05:39:20;5.90;;;2.37;;
4504;SDS011;2265;48.794;9.520;2023-12-28T05:41:47;3.20;;;2.20;;
4504;SDS011;2265;48.794;9.520;2023-12-28T05:44:17;3.50;;;2.50;;
4504;SDS011;2265;48.794;9.520;2023-12-28T05:46:46;4.53;;;2.30;;
4504;SDS011;2265;48.794;9.520;2023-12-28T05:49:13;4.33;;;2.40;;
4504;SDS011;2265;48.794;9.520;2023-12-28T05:51:40;4.73;;;2.60;;
4504;SDS011;2265;48.794;9.520;2023-12-28T05:54:08;4.50;;;2.27;;
4504;SDS011;2265;48.794;9.520;2023-12-28T05:56:35;3.80;;;2.00;;
4504;SDS011;2265;48.794;9.520;2023-12-28T05:59:02;4.30;;;2.33;;
4504;SDS011;2265;48.794;9.520;2023-12-28T06:01:31;5.50;;;2.60;;
4504;SDS011;2265;48.794;9.520;2023-12-28T06:04:01;2.83;;;2.20;;
4504;SDS011;2265;48.794;9.520;2023-12-28T06:06:31;4.80;;;2.63;;
4504;SDS011;2265;48.794;9.520;2023-12-28T06:08:58;4.00;;;2.40;;
4504;SDS011;2265;48.794;9.520;2023-12-28T06:11:28;3.00;;;2.33;;
4504;SDS011;2265;48.794;9.520;2023-12-28T06:13:56;4.77;;;2.60;;
4504;SDS011;2265;48.794;9.520;2023-12-28T06:16:28;5.17;;;2.57;;
4504;SDS011;2265;48.794;9.520;2023-12-28T06:19:05;4.87;;;2.80;;
4504;SDS011;2265;48.794;9.520;2023-12-28T06:21:34;4.97;;;2.83;;
4504;SDS011;2265;48.794;9.520;2023-12-28T06:24:01;4.50;;;2.70;;
4504;SDS011;2265;48.794;9.520;2023-12-28T06:26:28;8.53;;;3.60;;
4504;SDS011;2265;48.794;9.520;2023-12-28T06:28:56;6.07;;;3.03;;
4504;SDS011;2265;48.794;9.520;2023-12-28T06:31:23;4.10;;;2.70;;
4504;SDS011;2265;48.794;9.520;2023-12-28T06:33:50;5.77;;;3.03;;
4504;SDS011;2265;48.794;9.520;2023-12-28T06:36:19;4.40;;;2.53;;
4504;SDS011;2265;48.794;9.520;2023-12-28T06:38:46;4.97;;;2.80;;
4504;SDS011;2265;48.794;9.520;2023-12-28T06:41:13;4.13;;;2.70;;
4504;SDS011;2265;48.794;9.520;2023-12-28T06:43:40;5.93;;;2.80;;
4504;SDS011;2265;48.794;9.520;2023-12-28T06:46:07;4.90;;;2.87;;
4504;SDS011;2265;48.794;9.520;2023-12-28T06:48:34;3.70;;;2.50;;
4504;SDS011;2265;48.794;9.520;2023-12-28T06:51:05;4.53;;;2.50;;
4504;SDS011;2265;48.794;9.520;2023-12-28T06:53:34;4.67;;;2.83;;
4504;SDS011;2265;48.794;9.520;2023-12-28T06:56:01;4.03;;;2.20;;
4504;SDS011;2265;48.794;9.520;2023-12-28T06:58:28;5.10;;;2.60;;
4504;SDS011;2265;48.794;9.520;2023-12-28T07:00:55;4.20;;;2.60;;
4504;SDS011;2265;48.794;9.520;2023-12-28T07:03:22;6.30;;;2.33;;
4504;SDS011;2265;48.794;9.520;2023-12-28T07:05:51;4.90;;;2.30;;
4504;SDS011;2265;48.794;9.520;2023-12-28T07:08:18;3.83;;;2.13;;
4504;SDS011;2265;48.794;9.520;2023-12-28T07:10:46;2.70;;;2.13;;
4504;SDS011;2265;48.794;9.520;2023-12-28T07:13:13;3.30;;;2.20;;
4504;SDS011;2265;48.794;9.520;2023-12-28T07:15:40;7.33;;;2.37;;
4504;SDS011;2265;48.794;9.520;2023-12-28T07:18:07;4.27;;;2.40;;
4504;SDS011;2265;48.794;9.520;2023-12-28T07:20:34;3.63;;;2.40;;
4504;SDS011;2265;48.794;9.520;2023-12-28T07:23:01;4.00;;;2.37;;
4504;SDS011;2265;48.794;9.520;2023-12-28T07:25:29;3.43;;;2.50;;
4504;SDS011;2265;48.794;9.520;2023-12-28T07:27:56;3.13;;;2.47;;
4504;SDS011;2265;48.794;9.520;2023-12-28T07:30:23;3.33;;;2.13;;
4504;SDS011;2265;48.794;9.520;2023-12-28T07:32:50;3.00;;;2.07;;
4504;SDS011;2265;48.794;9.520;2023-12-28T07:35:17;4.93;;;2.77;;
4504;SDS011;2265;48.794;9.520;2023-12-28T07:37:45;3.27;;;2.60;;
4504;SDS011;2265;48.794;9.520;2023-12-28T07:40:12;7.13;;;3.83;;
4504;SDS011;2265;48.794;9.520;2023-12-28T07:42:39;7.00;;;3.70;;
4504;SDS011;2265;48.794;9.520;2023-12-28T07:45:08;5.30;;;3.33;;
4504;SDS011;2265;48.794;9.520;2023-12-28T07:47:35;5.73;;;2.90;;
4504;SDS011;2265;48.794;9.520;2023-12-28T07:50:03;4.40;;;2.60;;
4504;SDS011;2265;48.794;9.520;2023-12-28T07:52:31;2.80;;;2.10;;
4504;SDS011;2265;48.794;9.520;2023-12-28T07:54:58;4.17;;;2.63;;
4504;SDS011;2265;48.794;9.520;2023-12-28T07:57:25;4.00;;;2.60;;
4504;SDS011;2265;48.794;9.520;2023-12-28T07:59:56;4.67;;;2.70;;
4504;SDS011;2265;48.794;9.520;2023-12-28T08:02:25;8.43;;;4.03;;
4504;SDS011;2265;48.794;9.520;2023-12-28T08:05:01;8.00;;;4.07;;
4504;SDS011;2265;48.794;9.520;2023-12-28T08:07:28;8.27;;;4.03;;
4504;SDS011;2265;48.794;9.520;2023-12-28T08:09:55;9.20;;;4.30;;
4504;SDS011;2265;48.794;9.520;2023-12-28T08:12:22;9.90;;;4.43;;
4504;SDS011;2265;48.794;9.520;2023-12-28T08:14:52;11.77;;;4.87;;
4504;SDS011;2265;48.794;9.520;2023-12-28T08:17:20;7.17;;;3.50;;
4504;SDS011;2265;48.794;9.520;2023-12-28T08:19:49;8.53;;;3.97;;
4504;SDS011;2265;48.794;9.520;2023-12-28T08:22:16;7.70;;;3.67;;
4504;SDS011;2265;48.794;9.520;2023-12-28T08:24:46;5.33;;;3.17;;
4504;SDS011;2265;48.794;9.520;2023-12-28T08:27:14;5.53;;;2.80;;
4504;SDS011;2265;48.794;9.520;2023-12-28T08:29:41;6.30;;;3.23;;
4504;SDS011;2265;48.794;9.520;2023-12-28T08:32:09;5.37;;;2.90;;
4504;SDS011;2265;48.794;9.520;2023-12-28T08:34:36;7.13;;;3.10;;
4504;SDS011;2265;48.794;9.520;2023-12-28T08:37:05;5.90;;;3.37;;
4504;SDS011;2265;48.794;9.520;2023-12-28T08:39:32;5.10;;;2.80;;
4504;SDS011;2265;48.794;9.520;2023-12-28T08:42:01;6.87;;;3.10;;
4504;SDS011;2265;48.794;9.520;2023-12-28T08:44:28;4.70;;;2.60;;
4504;SDS011;2265;48.794;9.520;2023-12-28T08:46:56;6.67;;;3.17;;
4504;SDS011;2265;48.794;9.520;2023-12-28T08:49:27;7.10;;;3.30;;
4504;SDS011;2265;48.794;9.520;2023-12-28T08:51:54;5.47;;;3.00;;
4504;SDS011;2265;48.794;9.520;2023-12-28T08:54:23;4.80;;;2.80;;
4504;SDS011;2265;48.794;9.520;2023-12-28T08:56:50;8.67;;;4.63;;
4504;SDS011;2265;48.794;9.520;2023-12-28T08:59:18;7.90;;;4.50;;
4504;SDS011;2265;48.794;9.520;2023-12-28T09:01:45;9.47;;;4.73;;
4504;SDS011;2265;48.794;9.520;2023-12-28T09:04:13;8.60;;;3.87;;
4504;SDS011;2265;48.794;9.520;2023-12-28T09:06:40;7.50;;;3.80;;
4504;SDS011;2265;48.794;9.520;2023-12-28T09:09:07;6.60;;;3.67;;
4504;SDS011;2265;48.794;9.520;2023-12-28T09:14:11;9.60;;;4.60;;
4504;SDS011;2265;48.794;9.520;2023-12-28T09:16:38;9.60;;;4.20;;
4504;SDS011;2265;48.794;9.520;2023-12-28T09:19:07;8.83;;;4.43;;
4504;SDS011;2265;48.794;9.520;2023-12-28T09:21:39;12.97;;;5.27;;
4504;SDS011;2265;48.794;9.520;2023-12-28T09:24:07;15.70;;;6.67;;
4504;SDS011;2265;48.794;9.520;2023-12-28T09:26:34;11.77;;;5.40;;
4504;SDS011;2265;48.794;9.520;2023-12-28T09:29:01;11.17;;;5.40;;
4504;SDS011;2265;48.794;9.520;2023-12-28T09:31:29;11.20;;;5.97;;
4504;SDS011;2265;48.794;9.520;2023-12-28T09:33:57;12.30;;;6.17;;
4504;SDS011;2265;48.794;9.520;2023-12-28T09:36:24;11.77;;;5.37;;
4504;SDS011;2265;48.794;9.520;2023-12-28T09:38:52;11.50;;;5.00;;
4504;SDS011;2265;48.794;9.520;2023-12-28T09:41:21;11.77;;;5.70;;
4504;SDS011;2265;48.794;9.520;2023-12-28T09:43:53;14.67;;;5.97;;
4504;SDS011;2265;48.794;9.520;2023-12-28T09:46:22;9.63;;;5.03;;
4504;SDS011;2265;48.794;9.520;2023-12-28T09:48:53;12.80;;;5.20;;
4504;SDS011;2265;48.794;9.520;2023-12-28T09:51:23;11.30;;;5.30;;
4504;SDS011;2265;48.794;9.520;2023-12-28T09:53:50;15.20;;;5.80;;
4504;SDS011;2265;48.794;9.520;2023-12-28T09:56:18;13.33;;;5.70;;
4504;SDS011;2265;48.794;9.520;2023-12-28T09:58:46;11.83;;;4.57;;
4504;SDS011;2265;48.794;9.520;2023-12-28T10:01:16;11.90;;;6.10;;
4504;SDS011;2265;48.794;9.520;2023-12-28T10:03:44;11.53;;;5.67;;
4504;SDS011;2265;48.794;9.520;2023-12-28T10:06:13;11.80;;;5.77;;
4504;SDS011;2265;48.794;9.520;2023-12-28T10:08:44;12.93;;;6.10;;
4504;SDS011;2265;48.794;9.520;2023-12-28T10:11:13;14.80;;;6.53;;
4504;SDS011;2265;48.794;9.520;2023-12-28T10:13:41;10.97;;;5.47;;
4504;SDS011;2265;48.794;9.520;2023-12-28T10:16:09;13.50;;;6.37;;
4504;SDS011;2265;48.794;9.520;2023-12-28T10:18:39;10.67;;;6.20;;
4504;SDS011;2265;48.794;9.520;2023-12-28T10:21:07;11.53;;;5.60;;
4504;SDS011;2265;48.794;9.520;2023-12-28T10:23:36;12.27;;;6.30;;
4504;SDS011;2265;48.794;9.520;2023-12-28T10:26:03;12.17;;;5.83;;
4504;SDS011;2265;48.794;9.520;2023-12-28T10:28:32;13.53;;;5.80;;
4504;SDS011;2265;48.794;9.520;2023-12-28T10:31:03;12.97;;;5.60;;
4504;SDS011;2265;48.794;9.520;2023-12-28T10:33:33;15.70;;;6.50;;
4504;SDS011;2265;48.794;9.520;2023-12-28T10:36:02;15.60;;;6.50;;
4504;SDS011;2265;48.794;9.520;2023-12-28T10:38:33;15.90;;;7.10;;
4504;SDS011;2265;48.794;9.520;2023-12-28T10:41:07;13.77;;;6.20;;
4504;SDS011;2265;48.794;9.520;2023-12-28T10:43:36;12.80;;;6.10;;
4504;SDS011;2265;48.794;9.520;2023-12-28T10:46:07;12.97;;;5.80;;
4504;SDS011;2265;48.794;9.520;2023-12-28T10:48:37;13.10;;;6.00;;
4504;SDS011;2265;48.794;9.520;2023-12-28T10:51:07;10.50;;;5.57;;
4504;SDS011;2265;48.794;9.520;2023-12-28T10:53:38;13.90;;;6.53;;
4504;SDS011;2265;48.794;9.520;2023-12-28T10:56:14;13.00;;;6.00;;
4504;SDS011;2265;48.794;9.520;2023-12-28T10:58:48;8.33;;;4.83;;
4504;SDS011;2265;48.794;9.520;2023-12-28T11:01:17;9.73;;;4.60;;
4504;SDS011;2265;48.794;9.520;2023-12-28T11:03:51;9.77;;;5.10;;
4504;SDS011;2265;48.794;9.520;2023-12-28T11:06:25;10.20;;;4.70;;
4504;SDS011;2265;48.794;9.520;2023-12-28T11:08:55;10.73;;;4.30;;
4504;SDS011;2265;48.794;9.520;2023-12-28T11:11:24;7.60;;;3.87;;
4504;SDS011;2265;48.794;9.520;2023-12-28T11:13:53;13.13;;;3.80;;
4504;SDS011;2265;48.794;9.520;2023-12-28T11:16:22;6.60;;;3.73;;
4504;SDS011;2265;48.794;9.520;2023-12-28T11:21:21;8.00;;;3.13;;
4504;SDS011;2265;48.794;9.520;2023-12-28T11:23:49;6.30;;;3.20;;
4504;SDS011;2265;48.794;9.520;2023-12-28T11:26:18;5.70;;;3.57;;
4504;SDS011;2265;48.794;9.520;2023-12-28T11:28:46;5.93;;;3.30;;
4504;SDS011;2265;48.794;9.520;2023-12-28T11:31:13;4.90;;;2.90;;
4504;SDS011;2265;48.794;9.520;2023-12-28T11:33:44;5.77;;;3.10;;
4504;SDS011;2265;48.794;9.520;2023-12-28T11:36:13;6.03;;;3.40;;
4504;SDS011;2265;48.794;9.520;2023-12-28T11:38:49;6.70;;;3.10;;
4504;SDS011;2265;48.794;9.520;2023-12-28T11:41:21;6.73;;;3.20;;
4504;SDS011;2265;48.794;9.520;2023-12-28T11:43:51;4.80;;;3.10;;
4504;SDS011;2265;48.794;9.520;2023-12-28T11:46:20;6.70;;;3.80;;
4504;SDS011;2265;48.794;9.520;2023-12-28T11:48:48;5.93;;;3.20;;
4504;SDS011;2265;48.794;9.520;2023-12-28T11:51:15;9.23;;;4.47;;
4504;SDS011;2265;48.794;9.520;2023-12-28T11:53:43;9.00;;;4.70;;
4504;SDS011;2265;48.794;9.520;2023-12-28T11:56:14;10.20;;;4.90;;
4504;SDS011;2265;48.794;9.520;2023-12-28T11:58:43;12.27;;;6.17;;
4504;SDS011;2265;48.794;9.520;2023-12-28T12:01:13;11.50;;;6.07;;
4504;SDS011;2265;48.794;9.520;2023-12-28T12:03:40;14.40;;;6.10;;
4504;SDS011;2265;48.794;9.520;2023-12-28T12:06:07;14.10;;;6.53;;
4504;SDS011;2265;48.794;9.520;2023-12-28T12:08:34;10.03;;;5.80;;
4504;SDS011;2265;48.794;9.520;2023-12-28T12:11:02;10.53;;;5.73;;
4504;SDS011;2265;48.794;9.520;2023-12-28T12:13:31;12.30;;;5.93;;
4504;SDS011;2265;48.794;9.520;2023-12-28T12:16:00;10.77;;;5.37;;
4504;SDS011;2265;48.794;9.520;2023-12-28T12:18:30;8.93;;;4.50;;
4504;SDS011;2265;48.794;9.520;2023-12-28T12:20:58;9.07;;;4.33;;
4504;SDS011;2265;48.794;9.520;2023-12-28T12:23:25;9.93;;;4.10;;
4504;SDS011;2265;48.794;9.520;2023-12-28T12:25:52;9.53;;;4.13;;
4504;SDS011;2265;48.794;9.520;2023-12-28T12:28:20;9.00;;;3.93;;
4504;SDS011;2265;48.794;9.520;2023-12-28T12:30:51;9.33;;;4.00;;
4504;SDS011;2265;48.794;9.520;2023-12-28T12:33:23;8.33;;;4.30;;
4504;SDS011;2265;48.794;9.520;2023-12-28T12:35:54;11.90;;;4.43;;
4504;SDS011;2265;48.794;9.520;2023-12-28T12:38:21;8.30;;;3.40;;
4504;SDS011;2265;48.794;9.520;2023-12-28T12:40:50;7.10;;;3.50;;
4504;SDS011;2265;48.794;9.520;2023-12-28T12:43:18;9.87;;;3.70;;
4504;SDS011;2265;48.794;9.520;2023-12-28T12:45:46;10.87;;;4.70;;
4504;SDS011;2265;48.794;9.520;2023-12-28T12:48:13;8.17;;;4.40;;
4504;SDS011;2265;48.794;9.520;2023-12-28T12:50:42;7.50;;;4.20;;
4504;SDS011;2265;48.794;9.520;2023-12-28T12:53:09;8.23;;;4.50;;
4504;SDS011;2265;48.794;9.520;2023-12-28T12:55:37;12.70;;;5.90;;
4504;SDS011;2265;48.794;9.520;2023-12-28T12:58:07;16.93;;;7.00;;
4504;SDS011;2265;48.794;9.520;2023-12-28T13:00:34;12.37;;;5.60;;
4504;SDS011;2265;48.794;9.520;2023-12-28T13:03:02;10.93;;;5.30;;
4504;SDS011;2265;48.794;9.520;2023-12-28T13:05:30;7.67;;;4.80;;
4504;SDS011;2265;48.794;9.520;2023-12-28T13:07:58;11.07;;;4.53;;
4504;SDS011;2265;48.794;9.520;2023-12-28T13:10:25;13.03;;;5.30;;
4504;SDS011;2265;48.794;9.520;2023-12-28T13:12:52;11.20;;;5.30;;
4504;SDS011;2265;48.794;9.520;2023-12-28T13:15:20;11.20;;;5.40;;
4504;SDS011;2265;48.794;9.520;2023-12-28T13:17:47;11.40;;;5.30;;
4504;SDS011;2265;48.794;9.520;2023-12-28T13:20:15;11.00;;;5.17;;
4504;SDS011;2265;48.794;9.520;2023-12-28T13:22:42;10.10;;;4.70;;
4504;SDS011;2265;48.794;9.520;2023-12-28T13:25:11;7.90;;;4.30;;
4504;SDS011;2265;48.794;9.520;2023-12-28T13:27:38;6.53;;;3.77;;
4504;SDS011;2265;48.794;9.520;2023-12-28T13:30:06;9.90;;;4.43;;
4504;SDS011;2265;48.794;9.520;2023-12-28T13:32:33;8.30;;;4.00;;
4504;SDS011;2265;48.794;9.520;2023-12-28T13:35:02;6.50;;;3.70;;
4504;SDS011;2265;48.794;9.520;2023-12-28T13:37:30;7.33;;;4.03;;
4504;SDS011;2265;48.794;9.520;2023-12-28T13:39:57;7.67;;;4.13;;
4504;SDS011;2265;48.794;9.520;2023-12-28T13:42:25;10.23;;;4.53;;
4504;SDS011;2265;48.794;9.520;2023-12-28T13:44:52;7.07;;;3.60;;
4504;SDS011;2265;48.794;9.520;2023-12-28T13:47:20;7.70;;;4.13;;
4504;SDS011;2265;48.794;9.520;2023-12-28T13:49:48;8.93;;;3.77;;
4504;SDS011;2265;48.794;9.520;2023-12-28T13:52:15;9.37;;;4.57;;
4504;SDS011;2265;48.794;9.520;2023-12-28T13:54:42;9.20;;;4.23;;
4504;SDS011;2265;48.794;9.520;2023-12-28T13:57:09;8.43;;;4.63;;
4504;SDS011;2265;48.794;9.520;2023-12-28T13:59:38;8.20;;;4.37;;
4504;SDS011;2265;48.794;9.520;2023-12-28T14:02:05;11.47;;;3.97;;
4504;SDS011;2265;48.794;9.520;2023-12-28T14:04:32;7.47;;;3.27;;
4504;SDS011;2265;48.794;9.520;2023-12-28T14:07:00;7.97;;;3.90;;
4504;SDS011;2265;48.794;9.520;2023-12-28T14:09:28;7.07;;;3.23;;
4504;SDS011;2265;48.794;9.520;2023-12-28T14:11:58;7.27;;;4.13;;
4504;SDS011;2265;48.794;9.520;2023-12-28T14:14:25;6.30;;;3.57;;
4504;SDS011;2265;48.794;9.520;2023-12-28T14:16:53;4.53;;;2.90;;
4504;SDS011;2265;48.794;9.520;2023-12-28T14:19:20;5.60;;;2.80;;
4504;SDS011;2265;48.794;9.520;2023-12-28T14:21:51;4.87;;;2.67;;
4504;SDS011;2265;48.794;9.520;2023-12-28T14:24:19;8.80;;;3.87;;
4504;SDS011;2265;48.794;9.520;2023-12-28T14:26:47;3.80;;;2.80;;
4504;SDS011;2265;48.794;9.520;2023-12-28T14:29:18;5.17;;;2.73;;
4504;SDS011;2265;48.794;9.520;2023-12-28T14:31:46;9.40;;;4.23;;
4504;SDS011;2265;48.794;9.520;2023-12-28T14:34:15;9.50;;;5.07;;
4504;SDS011;2265;48.794;9.520;2023-12-28T14:36:44;8.53;;;3.80;;
4504;SDS011;2265;48.794;9.520;2023-12-28T14:39:15;6.53;;;3.30;;
4504;SDS011;2265;48.794;9.520;2023-12-28T14:41:44;9.93;;;3.80;;
4504;SDS011;2265;48.794;9.520;2023-12-28T14:44:11;6.30;;;2.80;;
4504;SDS011;2265;48.794;9.520;2023-12-28T14:46:38;4.10;;;2.53;;
4504;SDS011;2265;48.794;9.520;2023-12-28T14:49:06;4.03;;;2.60;;
4504;SDS011;2265;48.794;9.520;2023-12-28T14:51:34;3.30;;;2.40;;
4504;SDS011;2265;48.794;9.520;2023-12-28T14:54:09;5.80;;;2.50;;
4504;SDS011;2265;48.794;9.520;2023-12-28T14:56:36;3.67;;;2.33;;
4504;SDS011;2265;48.794;9.520;2023-12-28T14:59:04;4.23;;;3.07;;
4504;SDS011;2265;48.794;9.520;2023-12-28T15:01:31;3.83;;;2.63;;
4504;SDS011;2265;48.794;9.520;2023-12-28T15:03:59;3.70;;;2.53;;
4504;SDS011;2265;48.794;9.520;2023-12-28T15:06:26;4.80;;;2.67;;
4504;SDS011;2265;48.794;9.520;2023-12-28T15:08:54;5.73;;;2.77;;
4504;SDS011;2265;48.794;9.520;2023-12-28T15:11:24;4.83;;;2.97;;
4504;SDS011;2265;48.794;9.520;2023-12-28T15:13:52;5.60;;;3.00;;
4504;SDS011;2265;48.794;9.520;2023-12-28T15:16:21;3.70;;;2.37;;
4504;SDS011;2265;48.794;9.520;2023-12-28T15:18:48;5.57;;;3.07;;
4504;SDS011;2265;48.794;9.520;2023-12-28T15:21:16;3.33;;;2.20;;
4504;SDS011;2265;48.794;9.520;2023-12-28T15:23:43;4.70;;;2.70;;
4504;SDS011;2265;48.794;9.520;2023-12-28T15:26:12;3.97;;;2.60;;
4504;SDS011;2265;48.794;9.520;2023-12-28T15:28:39;5.57;;;2.70;;